Terminal Aerodrome Forecast
Issued by NWS Charleston, WV

Current Version | Previous Version | Graphics & Text | Print | Product List | Glossary On
Versions: 1 2 3 4 5 6 7 8 9 10 11 12 13 14 15 16 17 18 19 20 21 22
000
FTUS41 KRLX 260535
TAFCRW
TAF
KCRW 260535Z 2606/2706 00000KT P6SM SCT150
     FM260900 00000KT 6SM BR SCT070
     FM261000 00000KT 4SM BR SCT070
     FM261100 25007KT P6SM BKN070
     FM261600 21007KT P6SM BKN045
     FM262000 21005KT P6SM VCSH SCT045
     FM270000 VRB03KT P6SM SCT060=

USA.gov is the U.S. government's official web portal to all federal, state and local government web resources and services.